sensor_id;sensor_type;location;lat;lon;timestamp;temperature;humidity
11387;DHT22;5748;53.102;8.456;2023-08-01T00:01:06;20.80;75.80
11387;DHT22;5748;53.102;8.456;2023-08-01T00:03:33;20.80;76.30
11387;DHT22;5748;53.102;8.456;2023-08-01T00:08:28;20.80;75.80
11387;DHT22;5748;53.102;8.456;2023-08-01T00:10:55;20.80;76.60
11387;DHT22;5748;53.102;8.456;2023-08-01T00:13:22;20.90;76.80
11387;DHT22;5748;53.102;8.456;2023-08-01T00:15:49;20.70;76.40
11387;DHT22;5748;53.102;8.456;2023-08-01T00:20:43;20.70;76.00
11387;DHT22;5748;53.102;8.456;2023-08-01T00:23:10;20.70;76.60
11387;DHT22;5748;53.102;8.456;2023-08-01T00:25:38;21.00;77.00
11387;DHT22;5748;53.102;8.456;2023-08-01T00:28:05;20.70;76.80
11387;DHT22;5748;53.102;8.456;2023-08-01T00:30:32;20.70;76.70
11387;DHT22;5748;53.102;8.456;2023-08-01T00:32:59;20.70;76.60
11387;DHT22;5748;53.102;8.456;2023-08-01T00:35:26;20.80;76.70
11387;DHT22;5748;53.102;8.456;2023-08-01T00:37:53;20.70;76.70
11387;DHT22;5748;53.102;8.456;2023-08-01T00:40:20;20.70;76.30
11387;DHT22;5748;53.102;8.456;2023-08-01T00:42:48;20.70;76.60
11387;DHT22;5748;53.102;8.456;2023-08-01T00:45:21;20.70;76.80
11387;DHT22;5748;53.102;8.456;2023-08-01T00:47:50;20.80;76.70
11387;DHT22;5748;53.102;8.456;2023-08-01T00:52:45;20.70;76.00
11387;DHT22;5748;53.102;8.456;2023-08-01T01:00:10;20.70;76.10
11387;DHT22;5748;53.102;8.456;2023-08-01T01:02:38;20.70;76.80
11387;DHT22;5748;53.102;8.456;2023-08-01T01:05:05;20.70;76.70
11387;DHT22;5748;53.102;8.456;2023-08-01T01:10:00;20.60;76.10
11387;DHT22;5748;53.102;8.456;2023-08-01T01:12:28;20.60;76.70
11387;DHT22;5748;53.102;8.456;2023-08-01T01:17:24;20.60;76.20
11387;DHT22;5748;53.102;8.456;2023-08-01T01:19:50;20.60;77.50
11387;DHT22;5748;53.102;8.456;2023-08-01T01:22:19;20.60;77.70
11387;DHT22;5748;53.102;8.456;2023-08-01T01:24:47;20.60;76.30
11387;DHT22;5748;53.102;8.456;2023-08-01T01:27:15;20.60;76.90
11387;DHT22;5748;53.102;8.456;2023-08-01T01:29:43;20.90;77.20
11387;DHT22;5748;53.102;8.456;2023-08-01T01:32:11;20.60;76.30
11387;DHT22;5748;53.102;8.456;2023-08-01T01:34:39;20.70;77.00
11387;DHT22;5748;53.102;8.456;2023-08-01T01:37:06;20.70;77.00
11387;DHT22;5748;53.102;8.456;2023-08-01T01:39:34;23.60;80.00
11387;DHT22;5748;53.102;8.456;2023-08-01T01:42:01;20.60;76.90
11387;DHT22;5748;53.102;8.456;2023-08-01T01:44:28;21.70;78.20
11387;DHT22;5748;53.102;8.456;2023-08-01T01:46:55;20.50;76.80
11387;DHT22;5748;53.102;8.456;2023-08-01T01:49:22;20.60;77.00
11387;DHT22;5748;53.102;8.456;2023-08-01T01:54:17;20.50;76.10
11387;DHT22;5748;53.102;8.456;2023-08-01T01:56:46;20.50;76.70
11387;DHT22;5748;53.102;8.456;2023-08-01T01:59:12;20.50;76.80
11387;DHT22;5748;53.102;8.456;2023-08-01T02:04:07;20.50;76.40
11387;DHT22;5748;53.102;8.456;2023-08-01T02:09:01;20.50;76.30
11387;DHT22;5748;53.102;8.456;2023-08-01T02:11:28;20.50;76.90
11387;DHT22;5748;53.102;8.456;2023-08-01T02:13:57;20.50;76.90
11387;DHT22;5748;53.102;8.456;2023-08-01T02:16:24;20.40;76.90
11387;DHT22;5748;53.102;8.456;2023-08-01T02:18:50;20.50;76.90
11387;DHT22;5748;53.102;8.456;2023-08-01T02:21:17;20.40;76.40
11387;DHT22;5748;53.102;8.456;2023-08-01T02:23:44;20.40;77.00
11387;DHT22;5748;53.102;8.456;2023-08-01T02:28:38;20.40;76.10
11387;DHT22;5748;53.102;8.456;2023-08-01T02:31:07;20.30;76.40
11387;DHT22;5748;53.102;8.456;2023-08-01T02:33:34;20.40;76.40
11387;DHT22;5748;53.102;8.456;2023-08-01T02:36:00;20.30;76.20
11387;DHT22;5748;53.102;8.456;2023-08-01T02:38:27;20.30;76.30
11387;DHT22;5748;53.102;8.456;2023-08-01T02:40:54;20.40;76.40
11387;DHT22;5748;53.102;8.456;2023-08-01T02:43:21;20.30;76.40
11387;DHT22;5748;53.102;8.456;2023-08-01T02:48:17;20.20;75.80
11387;DHT22;5748;53.102;8.456;2023-08-01T02:50:45;20.50;76.90
11387;DHT22;5748;53.102;8.456;2023-08-01T02:53:12;20.50;76.70
11387;DHT22;5748;53.102;8.456;2023-08-01T02:55:39;20.60;76.90
11387;DHT22;5748;53.102;8.456;2023-08-01T03:00:33;20.20;75.90
11387;DHT22;5748;53.102;8.456;2023-08-01T03:03:01;20.10;76.40
11387;DHT22;5748;53.102;8.456;2023-08-01T03:05:30;20.10;76.40
11387;DHT22;5748;53.102;8.456;2023-08-01T03:07:57;20.10;76.50
11387;DHT22;5748;53.102;8.456;2023-08-01T03:10:23;20.10;76.50
11387;DHT22;5748;53.102;8.456;2023-08-01T03:12:50;20.10;76.60
11387;DHT22;5748;53.102;8.456;2023-08-01T03:15:17;20.10;76.70
11387;DHT22;5748;53.102;8.456;2023-08-01T03:17:44;20.10;76.80
11387;DHT22;5748;53.102;8.456;2023-08-01T03:20:12;20.10;76.80
11387;DHT22;5748;53.102;8.456;2023-08-01T03:22:40;20.10;76.90
11387;DHT22;5748;53.102;8.456;2023-08-01T03:25:08;20.80;77.60
11387;DHT22;5748;53.102;8.456;2023-08-01T03:27:35;20.10;76.90
11387;DHT22;5748;53.102;8.456;2023-08-01T03:30:03;20.10;76.90
11387;DHT22;5748;53.102;8.456;2023-08-01T03:32:34;20.10;77.00
11387;DHT22;5748;53.102;8.456;2023-08-01T03:35:01;20.10;76.90
11387;DHT22;5748;53.102;8.456;2023-08-01T03:37:28;20.10;76.90
11387;DHT22;5748;53.102;8.456;2023-08-01T03:39:56;20.10;76.40
11387;DHT22;5748;53.102;8.456;2023-08-01T03:44:50;20.10;76.40
11387;DHT22;5748;53.102;8.456;2023-08-01T03:47:17;22.20;79.80
11387;DHT22;5748;53.102;8.456;2023-08-01T03:52:11;20.10;76.50
11387;DHT22;5748;53.102;8.456;2023-08-01T03:54:38;20.30;77.20
11387;DHT22;5748;53.102;8.456;2023-08-01T03:57:07;20.20;77.10
11387;DHT22;5748;53.102;8.456;2023-08-01T03:59:34;20.20;77.10
11387;DHT22;5748;53.102;8.456;2023-08-01T04:02:01;20.20;77.00
11387;DHT22;5748;53.102;8.456;2023-08-01T04:04:28;20.20;77.10
11387;DHT22;5748;53.102;8.456;2023-08-01T04:06:56;20.10;76.90
11387;DHT22;5748;53.102;8.456;2023-08-01T04:09:23;20.30;77.90
11387;DHT22;5748;53.102;8.456;2023-08-01T04:11:50;20.10;77.00
11387;DHT22;5748;53.102;8.456;2023-08-01T04:14:18;20.20;76.80
11387;DHT22;5748;53.102;8.456;2023-08-01T04:16:45;20.10;76.50
11387;DHT22;5748;53.102;8.456;2023-08-01T04:19:12;20.00;76.20
11387;DHT22;5748;53.102;8.456;2023-08-01T04:21:39;20.00;76.20
11387;DHT22;5748;53.102;8.456;2023-08-01T04:24:06;19.90;76.10
11387;DHT22;5748;53.102;8.456;2023-08-01T04:26:33;19.90;76.10
11387;DHT22;5748;53.102;8.456;2023-08-01T04:29:02;19.80;76.00
11387;DHT22;5748;53.102;8.456;2023-08-01T04:31:30;19.80;76.30
11387;DHT22;5748;53.102;8.456;2023-08-01T04:33:57;19.70;76.20
11387;DHT22;5748;53.102;8.456;2023-08-01T04:36:24;19.70;76.30
11387;DHT22;5748;53.102;8.456;2023-08-01T04:38:51;19.70;76.30
11387;DHT22;5748;53.102;8.456;2023-08-01T04:41:18;19.70;76.00
11387;DHT22;5748;53.102;8.456;2023-08-01T04:43:45;19.70;76.40
11387;DHT22;5748;53.102;8.456;2023-08-01T04:46:12;19.60;76.30
11387;DHT22;5748;53.102;8.456;2023-08-01T04:48:40;22.50;79.30
11387;DHT22;5748;53.102;8.456;2023-08-01T04:53:34;19.60;76.10
11387;DHT22;5748;53.102;8.456;2023-08-01T04:56:01;19.60;76.60
11387;DHT22;5748;53.102;8.456;2023-08-01T04:58:28;19.60;76.70
11387;DHT22;5748;53.102;8.456;2023-08-01T05:00:56;19.70;76.80
11387;DHT22;5748;53.102;8.456;2023-08-01T05:03:23;19.60;76.70
11387;DHT22;5748;53.102;8.456;2023-08-01T05:05:51;19.60;76.60
11387;DHT22;5748;53.102;8.456;2023-08-01T05:08:18;19.60;76.80
11387;DHT22;5748;53.102;8.456;2023-08-01T05:10:45;19.70;76.80
11387;DHT22;5748;53.102;8.456;2023-08-01T05:13:12;19.60;76.80
11387;DHT22;5748;53.102;8.456;2023-08-01T05:15:38;19.70;76.90
11387;DHT22;5748;53.102;8.456;2023-08-01T05:18:05;19.70;77.00
11387;DHT22;5748;53.102;8.456;2023-08-01T05:20:32;19.70;77.10
11387;DHT22;5748;53.102;8.456;2023-08-01T05:23:01;19.70;77.00
11387;DHT22;5748;53.102;8.456;2023-08-01T05:25:28;19.70;77.00
11387;DHT22;5748;53.102;8.456;2023-08-01T05:27:55;19.70;76.80
11387;DHT22;5748;53.102;8.456;2023-08-01T05:30:22;19.70;76.70
11387;DHT22;5748;53.102;8.456;2023-08-01T05:32:49;19.80;76.70
11387;DHT22;5748;53.102;8.456;2023-08-01T05:35:16;19.70;76.60
11387;DHT22;5748;53.102;8.456;2023-08-01T05:37:43;19.70;76.50
11387;DHT22;5748;53.102;8.456;2023-08-01T05:40:12;19.70;76.40
11387;DHT22;5748;53.102;8.456;2023-08-01T05:42:39;19.70;76.60
11387;DHT22;5748;53.102;8.456;2023-08-01T05:45:07;19.70;76.60
11387;DHT22;5748;53.102;8.456;2023-08-01T05:47:36;19.70;76.80
11387;DHT22;5748;53.102;8.456;2023-08-01T05:50:06;19.70;76.90
11387;DHT22;5748;53.102;8.456;2023-08-01T05:52:33;19.70;77.10
11387;DHT22;5748;53.102;8.456;2023-08-01T05:55:00;19.70;77.30
11387;DHT22;5748;53.102;8.456;2023-08-01T05:57:29;19.60;77.30
11387;DHT22;5748;53.102;8.456;2023-08-01T05:59:56;19.80;78.30
11387;DHT22;5748;53.102;8.456;2023-08-01T06:02:22;19.80;77.60
11387;DHT22;5748;53.102;8.456;2023-08-01T06:04:50;19.90;77.40
11387;DHT22;5748;53.102;8.456;2023-08-01T06:07:17;19.80;77.70
11387;DHT22;5748;53.102;8.456;2023-08-01T06:09:48;19.90;78.00
11387;DHT22;5748;53.102;8.456;2023-08-01T06:12:16;19.90;78.00
11387;DHT22;5748;53.102;8.456;2023-08-01T06:14:46;20.00;78.20
11387;DHT22;5748;53.102;8.456;2023-08-01T06:17:13;20.10;78.30
11387;DHT22;5748;53.102;8.456;2023-08-01T06:19:39;20.10;78.30
11387;DHT22;5748;53.102;8.456;2023-08-01T06:22:08;20.20;78.30
11387;DHT22;5748;53.102;8.456;2023-08-01T06:24:35;20.30;78.70
11387;DHT22;5748;53.102;8.456;2023-08-01T06:27:02;20.30;78.80
11387;DHT22;5748;53.102;8.456;2023-08-01T06:29:30;20.40;78.90
11387;DHT22;5748;53.102;8.456;2023-08-01T06:31:58;20.50;78.80
11387;DHT22;5748;53.102;8.456;2023-08-01T06:34:25;20.70;78.90
11387;DHT22;5748;53.102;8.456;2023-08-01T06:36:52;20.60;78.70
11387;DHT22;5748;53.102;8.456;2023-08-01T06:39:19;20.70;78.40
11387;DHT22;5748;53.102;8.456;2023-08-01T06:41:46;20.70;78.10
11387;DHT22;5748;53.102;8.456;2023-08-01T06:44:13;20.70;77.90
11387;DHT22;5748;53.102;8.456;2023-08-01T06:46:40;20.70;77.70
11387;DHT22;5748;53.102;8.456;2023-08-01T06:49:08;20.70;77.50
11387;DHT22;5748;53.102;8.456;2023-08-01T06:51:35;20.80;77.50
11387;DHT22;5748;53.102;8.456;2023-08-01T06:54:02;20.70;77.30
11387;DHT22;5748;53.102;8.456;2023-08-01T06:56:29;20.70;77.20
11387;DHT22;5748;53.102;8.456;2023-08-01T06:58:56;20.70;77.50
11387;DHT22;5748;53.102;8.456;2023-08-01T07:01:23;20.70;77.10
11387;DHT22;5748;53.102;8.456;2023-08-01T07:03:50;20.70;77.80
11387;DHT22;5748;53.102;8.456;2023-08-01T07:06:19;20.60;77.60
11387;DHT22;5748;53.102;8.456;2023-08-01T07:08:45;20.70;77.80
11387;DHT22;5748;53.102;8.456;2023-08-01T07:11:12;20.70;77.20
11387;DHT22;5748;53.102;8.456;2023-08-01T07:13:39;20.70;77.70
11387;DHT22;5748;53.102;8.456;2023-08-01T07:16:06;20.70;77.50
11387;DHT22;5748;53.102;8.456;2023-08-01T07:18:33;20.70;77.50
11387;DHT22;5748;53.102;8.456;2023-08-01T07:21:00;20.70;77.50
11387;DHT22;5748;53.102;8.456;2023-08-01T07:23:29;20.80;77.60
11387;DHT22;5748;53.102;8.456;2023-08-01T07:25:56;20.80;77.60
11387;DHT22;5748;53.102;8.456;2023-08-01T07:28:23;20.80;77.60
11387;DHT22;5748;53.102;8.456;2023-08-01T07:30:58;20.80;77.80
11387;DHT22;5748;53.102;8.456;2023-08-01T07:33:25;20.80;77.90
11387;DHT22;5748;53.102;8.456;2023-08-01T07:35:52;20.90;78.00
11387;DHT22;5748;53.102;8.456;2023-08-01T07:38:19;20.90;78.10
11387;DHT22;5748;53.102;8.456;2023-08-01T07:40:48;20.90;78.30
11387;DHT22;5748;53.102;8.456;2023-08-01T07:43:15;21.30;78.90
11387;DHT22;5748;53.102;8.456;2023-08-01T07:45:42;21.10;79.00
11387;DHT22;5748;53.102;8.456;2023-08-01T07:48:09;21.20;79.20
11387;DHT22;5748;53.102;8.456;2023-08-01T07:50:36;21.40;79.40
11387;DHT22;5748;53.102;8.456;2023-08-01T07:53:03;21.50;79.40
11387;DHT22;5748;53.102;8.456;2023-08-01T07:55:33;22.50;80.40
11387;DHT22;5748;53.102;8.456;2023-08-01T07:58:01;22.00;79.90
11387;DHT22;5748;53.102;8.456;2023-08-01T08:00:28;21.90;79.50
11387;DHT22;5748;53.102;8.456;2023-08-01T08:02:55;22.10;79.50
11387;DHT22;5748;53.102;8.456;2023-08-01T08:05:22;22.20;79.60
11387;DHT22;5748;53.102;8.456;2023-08-01T08:07:49;22.30;78.90
11387;DHT22;5748;53.102;8.456;2023-08-01T08:10:16;22.40;78.30
11387;DHT22;5748;53.102;8.456;2023-08-01T08:12:43;22.50;77.80
11387;DHT22;5748;53.102;8.456;2023-08-01T08:15:11;22.40;77.20
11387;DHT22;5748;53.102;8.456;2023-08-01T08:17:39;22.80;77.20
11387;DHT22;5748;53.102;8.456;2023-08-01T08:20:07;22.30;77.00
11387;DHT22;5748;53.102;8.456;2023-08-01T08:22:34;22.40;77.00
11387;DHT22;5748;53.102;8.456;2023-08-01T08:25:01;22.60;77.50
11387;DHT22;5748;53.102;8.456;2023-08-01T08:27:28;22.50;78.90
11387;DHT22;5748;53.102;8.456;2023-08-01T08:29:55;22.60;80.70
11387;DHT22;5748;53.102;8.456;2023-08-01T08:32:23;22.90;81.90
11387;DHT22;5748;53.102;8.456;2023-08-01T08:34:50;23.20;82.60
11387;DHT22;5748;53.102;8.456;2023-08-01T08:37:17;23.50;83.70
11387;DHT22;5748;53.102;8.456;2023-08-01T08:39:44;24.00;84.30
11387;DHT22;5748;53.102;8.456;2023-08-01T08:42:10;24.30;83.20
11387;DHT22;5748;53.102;8.456;2023-08-01T08:44:42;24.70;81.60
11387;DHT22;5748;53.102;8.456;2023-08-01T08:47:11;24.90;80.00
11387;DHT22;5748;53.102;8.456;2023-08-01T08:49:40;24.90;77.90
11387;DHT22;5748;53.102;8.456;2023-08-01T08:52:09;25.10;77.20
11387;DHT22;5748;53.102;8.456;2023-08-01T08:54:37;25.10;76.40
11387;DHT22;5748;53.102;8.456;2023-08-01T08:57:05;25.10;76.70
11387;DHT22;5748;53.102;8.456;2023-08-01T08:59:33;25.10;77.50
11387;DHT22;5748;53.102;8.456;2023-08-01T09:02:01;25.90;77.70
11387;DHT22;5748;53.102;8.456;2023-08-01T09:04:29;25.10;76.40
11387;DHT22;5748;53.102;8.456;2023-08-01T09:07:02;25.10;76.30
11387;DHT22;5748;53.102;8.456;2023-08-01T09:09:29;25.10;75.90
11387;DHT22;5748;53.102;8.456;2023-08-01T09:11:57;25.10;76.20
11387;DHT22;5748;53.102;8.456;2023-08-01T09:14:24;25.10;75.80
11387;DHT22;5748;53.102;8.456;2023-08-01T09:16:52;25.30;75.60
11387;DHT22;5748;53.102;8.456;2023-08-01T09:19:20;25.20;75.50
11387;DHT22;5748;53.102;8.456;2023-08-01T09:21:47;25.10;74.80
11387;DHT22;5748;53.102;8.456;2023-08-01T09:24:16;25.80;74.30
11387;DHT22;5748;53.102;8.456;2023-08-01T09:26:46;25.10;73.20
11387;DHT22;5748;53.102;8.456;2023-08-01T09:29:15;24.90;72.90
11387;DHT22;5748;53.102;8.456;2023-08-01T09:31:43;24.80;72.80
11387;DHT22;5748;53.102;8.456;2023-08-01T09:34:19;24.60;72.40
11387;DHT22;5748;53.102;8.456;2023-08-01T09:36:46;24.40;71.90
11387;DHT22;5748;53.102;8.456;2023-08-01T09:39:17;24.20;72.90
11387;DHT22;5748;53.102;8.456;2023-08-01T09:41:45;24.00;73.50
11387;DHT22;5748;53.102;8.456;2023-08-01T09:44:16;24.00;73.60
11387;DHT22;5748;53.102;8.456;2023-08-01T09:46:43;23.80;73.30
11387;DHT22;5748;53.102;8.456;2023-08-01T09:49:11;25.00;74.70
11387;DHT22;5748;53.102;8.456;2023-08-01T09:51:46;23.60;74.10
11387;DHT22;5748;53.102;8.456;2023-08-01T09:54:14;23.70;74.50
11387;DHT22;5748;53.102;8.456;2023-08-01T09:56:45;23.80;76.00
11387;DHT22;5748;53.102;8.456;2023-08-01T09:59:13;23.90;76.60
11387;DHT22;5748;53.102;8.456;2023-08-01T10:01:44;24.10;76.60
11387;DHT22;5748;53.102;8.456;2023-08-01T10:04:11;24.20;76.00
11387;DHT22;5748;53.102;8.456;2023-08-01T10:06:42;24.40;76.50
11387;DHT22;5748;53.102;8.456;2023-08-01T10:09:10;24.80;76.70
11387;DHT22;5748;53.102;8.456;2023-08-01T10:11:39;24.80;76.60
11387;DHT22;5748;53.102;8.456;2023-08-01T10:14:07;24.90;75.80
11387;DHT22;5748;53.102;8.456;2023-08-01T10:16:34;25.00;75.00
11387;DHT22;5748;53.102;8.456;2023-08-01T10:19:02;25.10;74.10
11387;DHT22;5748;53.102;8.456;2023-08-01T10:21:32;25.20;73.40
11387;DHT22;5748;53.102;8.456;2023-08-01T10:24:00;25.00;72.50
11387;DHT22;5748;53.102;8.456;2023-08-01T10:26:29;25.00;72.40
11387;DHT22;5748;53.102;8.456;2023-08-01T10:28:57;24.90;72.30
11387;DHT22;5748;53.102;8.456;2023-08-01T10:31:26;24.80;72.20
11387;DHT22;5748;53.102;8.456;2023-08-01T10:34:03;24.80;72.90
11387;DHT22;5748;53.102;8.456;2023-08-01T10:36:31;24.70;73.20
11387;DHT22;5748;53.102;8.456;2023-08-01T10:39:00;24.80;73.80
11387;DHT22;5748;53.102;8.456;2023-08-01T10:41:29;24.90;74.70
11387;DHT22;5748;53.102;8.456;2023-08-01T10:44:09;25.10;74.40
11387;DHT22;5748;53.102;8.456;2023-08-01T10:46:47;25.20;72.80
11387;DHT22;5748;53.102;8.456;2023-08-01T10:49:15;25.30;71.10
11387;DHT22;5748;53.102;8.456;2023-08-01T10:51:42;25.30;72.30
11387;DHT22;5748;53.102;8.456;2023-08-01T10:54:18;25.40;74.00
11387;DHT22;5748;53.102;8.456;2023-08-01T10:56:49;25.60;72.80
11387;DHT22;5748;53.102;8.456;2023-08-01T10:59:18;25.70;72.70
11387;DHT22;5748;53.102;8.456;2023-08-01T11:01:48;25.80;72.20
11387;DHT22;5748;53.102;8.456;2023-08-01T11:04:17;25.90;71.70
11387;DHT22;5748;53.102;8.456;2023-08-01T11:06:45;25.90;70.50
11387;DHT22;5748;53.102;8.456;2023-08-01T11:09:17;25.80;69.80
11387;DHT22;5748;53.102;8.456;2023-08-01T11:11:45;25.80;69.40
11387;DHT22;5748;53.102;8.456;2023-08-01T11:14:14;25.50;68.70
11387;DHT22;5748;53.102;8.456;2023-08-01T11:16:42;25.30;68.80
11387;DHT22;5748;53.102;8.456;2023-08-01T11:19:18;25.10;69.10
11387;DHT22;5748;53.102;8.456;2023-08-01T11:21:46;25.00;69.50
11387;DHT22;5748;53.102;8.456;2023-08-01T11:24:13;24.80;69.70
11387;DHT22;5748;53.102;8.456;2023-08-01T11:26:42;24.70;69.40
11387;DHT22;5748;53.102;8.456;2023-08-01T11:29:09;24.60;69.50
11387;DHT22;5748;53.102;8.456;2023-08-01T11:31:37;24.50;69.80
11387;DHT22;5748;53.102;8.456;2023-08-01T11:34:06;24.40;69.70
11387;DHT22;5748;53.102;8.456;2023-08-01T11:36:34;24.30;70.10
11387;DHT22;5748;53.102;8.456;2023-08-01T11:39:01;24.30;70.40
11387;DHT22;5748;53.102;8.456;2023-08-01T11:41:29;24.30;69.50
11387;DHT22;5748;53.102;8.456;2023-08-01T11:44:02;24.30;70.00
11387;DHT22;5748;53.102;8.456;2023-08-01T11:46:34;24.20;69.50
11387;DHT22;5748;53.102;8.456;2023-08-01T11:49:01;24.20;70.50
11387;DHT22;5748;53.102;8.456;2023-08-01T11:51:30;24.20;70.60
11387;DHT22;5748;53.102;8.456;2023-08-01T11:54:00;24.20;71.20
11387;DHT22;5748;53.102;8.456;2023-08-01T11:56:28;24.40;71.80
11387;DHT22;5748;53.102;8.456;2023-08-01T11:58:55;24.50;72.20
11387;DHT22;5748;53.102;8.456;2023-08-01T12:01:23;24.80;70.60
11387;DHT22;5748;53.102;8.456;2023-08-01T12:03:51;24.80;70.90
11387;DHT22;5748;53.102;8.456;2023-08-01T12:06:20;24.80;69.90
11387;DHT22;5748;53.102;8.456;2023-08-01T12:08:50;24.80;69.10
11387;DHT22;5748;53.102;8.456;2023-08-01T12:11:22;24.50;67.40
11387;DHT22;5748;53.102;8.456;2023-08-01T12:14:01;24.50;67.80
11387;DHT22;5748;53.102;8.456;2023-08-01T12:16:29;24.20;67.60
11387;DHT22;5748;53.102;8.456;2023-08-01T12:18:56;23.90;67.70
11387;DHT22;5748;53.102;8.456;2023-08-01T12:21:23;23.50;68.70
11387;DHT22;5748;53.102;8.456;2023-08-01T12:23:51;23.40;69.50
11387;DHT22;5748;53.102;8.456;2023-08-01T12:26:18;23.40;71.20
11387;DHT22;5748;53.102;8.456;2023-08-01T12:28:45;23.40;74.00
11387;DHT22;5748;53.102;8.456;2023-08-01T12:31:16;23.90;77.20
11387;DHT22;5748;53.102;8.456;2023-08-01T12:33:44;24.50;80.10
11387;DHT22;5748;53.102;8.456;2023-08-01T12:36:11;25.10;81.70
11387;DHT22;5748;53.102;8.456;2023-08-01T12:38:38;25.90;81.20
11387;DHT22;5748;53.102;8.456;2023-08-01T12:41:07;26.70;79.40
11387;DHT22;5748;53.102;8.456;2023-08-01T12:43:34;27.20;76.60
11387;DHT22;5748;53.102;8.456;2023-08-01T12:46:01;27.50;74.20
11387;DHT22;5748;53.102;8.456;2023-08-01T12:48:28;27.80;71.20
11387;DHT22;5748;53.102;8.456;2023-08-01T12:50:56;27.70;69.60
11387;DHT22;5748;53.102;8.456;2023-08-01T12:53:23;27.50;68.40
11387;DHT22;5748;53.102;8.456;2023-08-01T12:55:50;27.20;67.50
11387;DHT22;5748;53.102;8.456;2023-08-01T12:58:19;26.90;67.10
11387;DHT22;5748;53.102;8.456;2023-08-01T13:00:46;26.60;66.90
11387;DHT22;5748;53.102;8.456;2023-08-01T13:03:13;26.20;66.90
11387;DHT22;5748;53.102;8.456;2023-08-01T13:05:41;25.90;67.50
11387;DHT22;5748;53.102;8.456;2023-08-01T13:08:09;25.60;68.40
11387;DHT22;5748;53.102;8.456;2023-08-01T13:10:37;25.40;69.80
11387;DHT22;5748;53.102;8.456;2023-08-01T13:13:05;25.40;71.20
11387;DHT22;5748;53.102;8.456;2023-08-01T13:15:33;25.30;71.90
11387;DHT22;5748;53.102;8.456;2023-08-01T13:18:00;25.50;71.70
11387;DHT22;5748;53.102;8.456;2023-08-01T13:20:27;25.50;71.60
11387;DHT22;5748;53.102;8.456;2023-08-01T13:22:54;25.50;71.50
11387;DHT22;5748;53.102;8.456;2023-08-01T13:25:21;25.60;71.60
11387;DHT22;5748;53.102;8.456;2023-08-01T13:27:48;25.60;70.90
11387;DHT22;5748;53.102;8.456;2023-08-01T13:30:15;25.60;70.30
11387;DHT22;5748;53.102;8.456;2023-08-01T13:32:45;25.60;70.00
11387;DHT22;5748;53.102;8.456;2023-08-01T13:35:12;25.50;69.60
11387;DHT22;5748;53.102;8.456;2023-08-01T13:37:40;25.40;69.80
11387;DHT22;5748;53.102;8.456;2023-08-01T13:40:08;25.40;70.00
11387;DHT22;5748;53.102;8.456;2023-08-01T13:42:37;25.40;70.10
11387;DHT22;5748;53.102;8.456;2023-08-01T13:45:05;25.30;69.80
11387;DHT22;5748;53.102;8.456;2023-08-01T13:47:32;25.30;70.10
11387;DHT22;5748;53.102;8.456;2023-08-01T13:50:00;25.40;69.60
11387;DHT22;5748;53.102;8.456;2023-08-01T13:52:28;25.40;69.30
11387;DHT22;5748;53.102;8.456;2023-08-01T13:54:54;25.40;69.50
11387;DHT22;5748;53.102;8.456;2023-08-01T13:57:22;25.40;69.70
11387;DHT22;5748;53.102;8.456;2023-08-01T13:59:50;25.30;69.40
11387;DHT22;5748;53.102;8.456;2023-08-01T14:02:17;25.30;68.90
11387;DHT22;5748;53.102;8.456;2023-08-01T14:04:43;25.50;68.50
11387;DHT22;5748;53.102;8.456;2023-08-01T14:07:12;25.10;67.80
11387;DHT22;5748;53.102;8.456;2023-08-01T14:09:39;24.90;67.40
11387;DHT22;5748;53.102;8.456;2023-08-01T14:12:06;24.70;67.30
11387;DHT22;5748;53.102;8.456;2023-08-01T14:14:34;24.50;67.50
11387;DHT22;5748;53.102;8.456;2023-08-01T14:17:01;24.30;67.60
11387;DHT22;5748;53.102;8.456;2023-08-01T14:19:28;24.10;68.00
11387;DHT22;5748;53.102;8.456;2023-08-01T14:21:55;23.90;68.70
11387;DHT22;5748;53.102;8.456;2023-08-01T14:24:24;23.80;69.60
11387;DHT22;5748;53.102;8.456;2023-08-01T14:26:51;23.80;70.00
11387;DHT22;5748;53.102;8.456;2023-08-01T14:29:18;23.80;70.20
11387;DHT22;5748;53.102;8.456;2023-08-01T14:31:47;23.80;70.10
11387;DHT22;5748;53.102;8.456;2023-08-01T14:34:15;26.30;72.20
11387;DHT22;5748;53.102;8.456;2023-08-01T14:36:42;23.80;69.80
11387;DHT22;5748;53.102;8.456;2023-08-01T14:39:09;23.70;69.30
11387;DHT22;5748;53.102;8.456;2023-08-01T14:41:37;23.70;69.10
11387;DHT22;5748;53.102;8.456;2023-08-01T14:44:04;23.60;68.90
11387;DHT22;5748;53.102;8.456;2023-08-01T14:46:31;23.50;68.80
11387;DHT22;5748;53.102;8.456;2023-08-01T14:48:58;23.40;68.80
11387;DHT22;5748;53.102;8.456;2023-08-01T14:51:25;23.20;68.80
11387;DHT22;5748;53.102;8.456;2023-08-01T14:53:52;23.20;70.00
11387;DHT22;5748;53.102;8.456;2023-08-01T14:56:19;23.10;69.50
11387;DHT22;5748;53.102;8.456;2023-08-01T14:58:47;23.00;69.70
11387;DHT22;5748;53.102;8.456;2023-08-01T15:01:14;22.90;68.90
11387;DHT22;5748;53.102;8.456;2023-08-01T15:03:43;22.90;69.50
11387;DHT22;5748;53.102;8.456;2023-08-01T15:06:10;22.80;69.50
11387;DHT22;5748;53.102;8.456;2023-08-01T15:08:38;22.90;69.60
11387;DHT22;5748;53.102;8.456;2023-08-01T15:11:05;22.70;69.80
11387;DHT22;5748;53.102;8.456;2023-08-01T15:13:33;22.80;70.40
11387;DHT22;5748;53.102;8.456;2023-08-01T15:16:01;22.90;70.40
11387;DHT22;5748;53.102;8.456;2023-08-01T15:18:28;22.80;70.30
11387;DHT22;5748;53.102;8.456;2023-08-01T15:20:55;22.70;70.20
11387;DHT22;5748;53.102;8.456;2023-08-01T15:23:22;22.90;70.30
11387;DHT22;5748;53.102;8.456;2023-08-01T15:25:53;22.90;70.20
11387;DHT22;5748;53.102;8.456;2023-08-01T15:28:21;22.90;70.10
11387;DHT22;5748;53.102;8.456;2023-08-01T15:30:49;22.90;70.20
11387;DHT22;5748;53.102;8.456;2023-08-01T15:33:17;23.00;70.50
11387;DHT22;5748;53.102;8.456;2023-08-01T15:35:44;22.90;70.60
11387;DHT22;5748;53.102;8.456;2023-08-01T15:38:11;23.00;70.70
11387;DHT22;5748;53.102;8.456;2023-08-01T15:40:38;23.10;71.00
11387;DHT22;5748;53.102;8.456;2023-08-01T15:43:05;23.10;70.90
11387;DHT22;5748;53.102;8.456;2023-08-01T15:45:32;23.30;70.80
11387;DHT22;5748;53.102;8.456;2023-08-01T15:47:59;23.30;70.40
11387;DHT22;5748;53.102;8.456;2023-08-01T15:50:27;23.40;69.90
11387;DHT22;5748;53.102;8.456;2023-08-01T15:52:54;23.90;70.30
11387;DHT22;5748;53.102;8.456;2023-08-01T15:55:21;23.30;69.50
11387;DHT22;5748;53.102;8.456;2023-08-01T15:57:48;23.30;69.60
11387;DHT22;5748;53.102;8.456;2023-08-01T16:00:15;23.40;69.60
11387;DHT22;5748;53.102;8.456;2023-08-01T16:02:42;23.30;69.60
11387;DHT22;5748;53.102;8.456;2023-08-01T16:05:09;23.30;69.70
11387;DHT22;5748;53.102;8.456;2023-08-01T16:07:38;23.40;69.70
11387;DHT22;5748;53.102;8.456;2023-08-01T16:10:05;23.40;69.60
11387;DHT22;5748;53.102;8.456;2023-08-01T16:12:32;23.40;69.40
11387;DHT22;5748;53.102;8.456;2023-08-01T16:14:59;23.30;69.20
11387;DHT22;5748;53.102;8.456;2023-08-01T16:17:26;23.30;69.30
11387;DHT22;5748;53.102;8.456;2023-08-01T16:19:53;23.30;69.30
11387;DHT22;5748;53.102;8.456;2023-08-01T16:22:21;23.30;69.50
11387;DHT22;5748;53.102;8.456;2023-08-01T16:24:49;23.30;69.50
11387;DHT22;5748;53.102;8.456;2023-08-01T16:27:16;23.20;69.10